Time;durP1;ratioP1;P1;durP2;ratioP2;P2;SDS_P1;SDS_P2;PMS_P1;PMS_P2;Temp;Humidity;BMP_temperature;BMP_pressure;BME280_temperature;BME280_humidity;BME280_pressure;Samples;Min_cycle;Max_cycle;Signal;HPM_P1;HPM_P2
2021/06/24 00:01:06;;;;;;;3.25;2.45;;;19.50;58.00;;;;;;5068230;28;20052;-82
2021/06/24 00:03:36;;;;;;;1.83;1.70;;;19.50;58.00;;;;;;5081659;28;20056;-82
2021/06/24 00:06:06;;;;;;;3.58;1.95;;;19.50;58.10;;;;;;5086177;28;20059;-84
2021/06/24 00:08:35;;;;;;;2.42;1.98;;;19.50;58.10;;;;;;5079923;28;20055;-82
2021/06/24 00:11:09;;;;;;;2.17;1.98;;;19.40;58.10;;;;;;5058948;28;20049;-83
2021/06/24 00:13:42;;;;;;;3.17;2.50;;;19.40;58.20;;;;;;5079533;28;20052;-87
2021/06/24 00:16:21;;;;;;;5.15;2.85;;;19.40;58.20;;;;;;5041210;28;20041;-86
2021/06/24 00:18:50;;;;;;;5.65;3.22;;;19.40;58.40;;;;;;5053545;28;20060;-89
2021/06/24 00:21:19;;;;;;;3.42;2.08;;;19.30;58.90;;;;;;5042303;28;20048;-87
2021/06/24 00:23:50;;;;;;;3.65;3.30;;;19.30;59.20;;;;;;5051444;28;20041;-85
2021/06/24 00:26:18;;;;;;;3.60;3.30;;;19.30;59.40;;;;;;5066057;28;20048;-86
2021/06/24 00:28:47;;;;;;;4.32;3.63;;;19.30;59.60;;;;;;5037105;28;20052;-86
2021/06/24 00:31:15;;;;;;;5.88;4.70;;;19.30;60.00;;;;;;5062784;28;20049;-86
2021/06/24 00:33:48;;;;;;;6.07;4.13;;;19.30;60.40;;;;;;5054491;28;20052;-86
2021/06/24 00:36:16;;;;;;;4.00;3.60;;;19.20;60.70;;;;;;5036709;28;20060;-85
2021/06/24 00:38:45;;;;;;;3.78;3.47;;;19.10;60.90;;;;;;5069605;28;20045;-88
2021/06/24 00:41:15;;;;;;;4.03;3.72;;;19.10;60.90;;;;;;5052841;28;20057;-89
2021/06/24 00:44:01;;;;;;;5.50;5.03;;;19.10;61.00;;;;;;5069953;28;20049;-85
2021/06/24 00:46:32;;;;;;;5.72;3.90;;;19.10;61.00;;;;;;5058778;28;20044;-85
2021/06/24 00:49:06;;;;;;;5.63;5.10;;;19.10;61.10;;;;;;5071906;28;20060;-88
2021/06/24 00:51:38;;;;;;;4.47;4.07;;;19.10;61.10;;;;;;5044984;28;20056;-86
2021/06/24 00:54:10;;;;;;;5.60;5.07;;;19.10;61.20;;;;;;5080373;28;20048;-85
2021/06/24 00:56:41;;;;;;;3.88;3.47;;;19.20;61.20;;;;;;5055429;28;20047;-88
2021/06/24 00:59:09;;;;;;;4.70;4.28;;;19.20;61.20;;;;;;5039993;28;20057;-86
2021/06/24 01:01:39;;;;;;;6.95;5.50;;;19.20;61.30;;;;;;5035950;28;20060;-84
2021/06/24 01:04:08;;;;;;;4.90;4.38;;;19.20;61.30;;;;;;5059361;28;20056;-84
2021/06/24 01:06:37;;;;;;;10.95;5.60;;;19.20;61.40;;;;;;5053278;28;20059;-86
2021/06/24 01:09:05;;;;;;;6.13;4.80;;;19.20;61.50;;;;;;5052335;28;20052;-85
2021/06/24 01:11:34;;;;;;;7.90;5.13;;;19.20;61.50;;;;;;5067766;28;20056;-86
2021/06/24 01:14:03;;;;;;;8.27;6.35;;;19.20;61.50;;;;;;5045396;28;20052;-83
2021/06/24 01:16:31;;;;;;;11.82;7.68;;;19.20;61.50;;;;;;5054875;28;20044;-84
2021/06/24 01:19:12;;;;;;;11.45;8.55;;;19.30;61.50;;;;;;5052338;28;20056;-84
2021/06/24 01:21:53;;;;;;;10.70;8.40;;;19.30;61.50;;;;;;5051856;28;20056;-82
2021/06/24 01:24:25;;;;;;;14.00;10.23;;;19.20;61.60;;;;;;5056194;28;20049;-86
2021/06/24 01:26:54;;;;;;;19.52;10.35;;;19.20;61.70;;;;;;5053560;28;20044;-86
2021/06/24 01:29:22;;;;;;;13.68;10.40;;;19.10;62.10;;;;;;5050291;28;20045;-84
2021/06/24 01:31:51;;;;;;;12.05;10.25;;;19.00;62.60;;;;;;5064248;28;20040;-87
2021/06/24 01:34:19;;;;;;;13.88;10.80;;;19.00;63.00;;;;;;5078607;28;20071;-85
2021/06/24 01:36:48;;;;;;;17.80;10.20;;;18.80;63.40;;;;;;5076639;28;20048;-86
2021/06/24 01:39:17;;;;;;;16.15;11.07;;;18.80;63.70;;;;;;5074801;28;20067;-85
2021/06/24 01:41:56;;;;;;;15.55;10.25;;;18.80;63.90;;;;;;5042568;28;20076;-85
2021/06/24 01:44:33;;;;;;;14.50;11.10;;;18.80;64.10;;;;;;5055636;28;20048;-86
2021/06/24 01:47:04;;;;;;;13.55;11.40;;;18.80;64.20;;;;;;5052347;28;20359;-85
2021/06/24 01:49:32;;;;;;;12.85;11.45;;;18.80;64.20;;;;;;5059279;28;20048;-86
2021/06/24 01:52:01;;;;;;;18.00;12.32;;;18.80;64.40;;;;;;5064333;28;20049;-87
2021/06/24 01:54:29;;;;;;;17.08;11.35;;;18.80;64.50;;;;;;5054325;28;20060;-87
2021/06/24 01:56:58;;;;;;;14.95;12.48;;;18.70;64.60;;;;;;5075074;28;20052;-85
2021/06/24 01:59:28;;;;;;;13.98;11.90;;;18.80;64.80;;;;;;5055087;28;20051;-86
2021/06/24 02:02:01;;;;;;;15.98;12.30;;;18.80;64.90;;;;;;5064755;28;20049;-84
2021/06/24 02:04:55;;;;;;;15.68;12.70;;;18.70;64.90;;;;;;5066349;28;20047;-85
2021/06/24 02:07:30;;;;;;;16.23;13.27;;;18.70;64.90;;;;;;5052787;28;20060;-84
2021/06/24 02:10:17;;;;;;;15.50;12.52;;;18.70;65.00;;;;;;5068933;28;20040;-84
2021/06/24 02:12:56;;;;;;;15.75;12.77;;;18.70;65.10;;;;;;5036378;28;20056;-84
2021/06/24 02:15:25;;;;;;;15.93;13.25;;;18.70;65.10;;;;;;5060357;28;20040;-84
2021/06/24 02:17:55;;;;;;;16.38;12.90;;;18.60;65.20;;;;;;5067262;28;20048;-84
2021/06/24 02:20:36;;;;;;;15.60;13.85;;;18.60;65.40;;;;;;5045461;28;20036;-83
2021/06/24 02:23:13;;;;;;;15.73;13.57;;;18.60;65.50;;;;;;5067619;28;20059;-84
2021/06/24 02:25:48;;;;;;;15.50;11.95;;;18.60;65.60;;;;;;5055603;28;20045;-84
2021/06/24 02:28:22;;;;;;;13.63;11.95;;;18.60;65.60;;;;;;5052164;28;20040;-83
2021/06/24 02:30:59;;;;;;;12.40;11.10;;;18.60;65.60;;;;;;5050974;28;20075;-84
2021/06/24 02:33:27;;;;;;;11.27;10.07;;;18.60;65.60;;;;;;5069554;28;20049;-84
2021/06/24 02:36:10;;;;;;;17.37;10.67;;;18.70;65.60;;;;;;5065374;28;20045;-85
2021/06/24 02:38:39;;;;;;;13.35;9.70;;;18.80;65.40;;;;;;5050370;28;20044;-85
2021/06/24 02:41:07;;;;;;;14.05;9.55;;;18.80;65.30;;;;;;5072631;28;20048;-84
2021/06/24 02:43:38;;;;;;;11.45;9.73;;;18.80;65.20;;;;;;5054882;28;20055;-84
2021/06/24 02:46:06;;;;;;;12.07;9.88;;;18.80;65.10;;;;;;5051859;28;20052;-86
2021/06/24 02:48:42;;;;;;;11.13;8.85;;;18.90;65.10;;;;;;5052846;28;20060;-83
2021/06/24 02:51:12;;;;;;;11.32;8.90;;;18.90;65.00;;;;;;5055443;28;20048;-83
2021/06/24 02:54:00;;;;;;;13.32;9.32;;;19.00;65.00;;;;;;5059825;28;20053;-85
2021/06/24 02:56:33;;;;;;;15.80;8.90;;;19.00;64.90;;;;;;5051600;28;20455;-85
2021/06/24 02:59:04;;;;;;;13.68;8.00;;;19.00;64.80;;;;;;5055609;28;20474;-85
2021/06/24 03:01:39;;;;;;;9.55;7.03;;;19.00;64.80;;;;;;5035390;28;20048;-85
2021/06/24 03:04:20;;;;;;;11.20;7.20;;;19.00;64.70;;;;;;5063424;28;20052;-85
2021/06/24 03:06:50;;;;;;;13.60;7.88;;;19.10;64.70;;;;;;5057711;28;20370;-85
2021/06/24 03:09:20;;;;;;;8.75;6.93;;;19.10;64.70;;;;;;5036913;28;20045;-85
2021/06/24 03:11:50;;;;;;;7.57;6.55;;;19.10;64.70;;;;;;5045713;28;20048;-85
2021/06/24 03:14:21;;;;;;;8.70;6.88;;;19.00;64.60;;;;;;5044775;28;20045;-85
2021/06/24 03:16:49;;;;;;;9.32;6.82;;;19.00;64.60;;;;;;5067668;28;20052;-85
2021/06/24 03:19:21;;;;;;;8.18;7.38;;;19.10;64.60;;;;;;5071797;28;20049;-85
2021/06/24 03:22:06;;;;;;;7.53;6.03;;;19.10;64.60;;;;;;5053869;28;20053;-84
2021/06/24 03:24:47;;;;;;;8.90;6.65;;;19.10;64.50;;;;;;5048452;28;20049;-84
2021/06/24 03:27:15;;;;;;;7.32;5.32;;;19.10;64.40;;;;;;5047192;28;20045;-84
2021/06/24 03:30:05;;;;;;;9.27;6.72;;;19.10;64.40;;;;;;5067456;28;20048;-84
2021/06/24 03:32:33;;;;;;;8.15;6.40;;;19.00;64.30;;;;;;5055966;28;20382;-84
2021/06/24 03:35:02;;;;;;;8.82;6.10;;;19.00;64.20;;;;;;5064354;28;20067;-85
2021/06/24 03:37:33;;;;;;;7.75;6.70;;;19.00;64.20;;;;;;5035731;28;20057;-84
2021/06/24 03:40:03;;;;;;;8.88;6.47;;;19.00;64.10;;;;;;5060985;28;20064;-84
2021/06/24 03:42:32;;;;;;;9.38;6.88;;;19.00;64.10;;;;;;5052102;28;20044;-85
2021/06/24 03:45:01;;;;;;;7.30;6.60;;;18.90;64.10;;;;;;5068861;28;20048;-84
2021/06/24 03:47:30;;;;;;;7.72;6.85;;;19.00;64.10;;;;;;5060650;28;20048;-85
2021/06/24 03:49:58;;;;;;;6.53;5.95;;;18.90;64.00;;;;;;5047810;28;20052;-84
2021/06/24 03:52:29;;;;;;;7.60;6.18;;;18.90;64.00;;;;;;5054937;28;20041;-84
2021/06/24 03:55:07;;;;;;;7.43;6.72;;;18.90;63.90;;;;;;5065837;28;20049;-85
2021/06/24 03:57:58;;;;;;;6.60;5.80;;;18.90;63.90;;;;;;5058878;28;20041;-85
2021/06/24 04:00:27;;;;;;;9.90;6.22;;;18.80;63.80;;;;;;5047019;28;20044;-84
2021/06/24 04:03:08;;;;;;;6.50;5.90;;;18.80;63.80;;;;;;5056046;28;20064;-85
2021/06/24 04:05:55;;;;;;;7.00;6.05;;;18.80;63.80;;;;;;5039022;28;20049;-84
2021/06/24 04:08:23;;;;;;;5.65;5.15;;;18.80;63.80;;;;;;5050602;28;20044;-84
2021/06/24 04:11:14;;;;;;;6.20;5.60;;;18.80;63.80;;;;;;5062724;28;20056;-85
2021/06/24 04:13:48;;;;;;;6.20;5.63;;;18.80;63.80;;;;;;5048984;28;20471;-85
2021/06/24 04:16:46;;;;;;;7.70;5.55;;;18.80;63.80;;;;;;5047488;28;20471;-85
2021/06/24 04:19:16;;;;;;;6.20;5.60;;;18.80;63.80;;;;;;5060260;28;20489;-85
2021/06/24 04:21:45;;;;;;;5.75;5.25;;;18.80;63.80;;;;;;5076564;28;20055;-85
2021/06/24 04:24:14;;;;;;;6.15;5.55;;;18.80;63.90;;;;;;5056202;28;20053;-86
2021/06/24 04:26:45;;;;;;;5.30;4.80;;;18.70;63.90;;;;;;5050190;28;20052;-85
2021/06/24 04:29:18;;;;;;;5.80;4.50;;;18.80;63.80;;;;;;5067204;28;20442;-85
2021/06/24 04:31:48;;;;;;;5.10;4.70;;;18.80;63.90;;;;;;5060870;28;20037;-84
2021/06/24 04:34:17;;;;;;;5.25;4.68;;;18.70;63.90;;;;;;5050484;28;20056;-85
2021/06/24 04:37:02;;;;;;;4.80;4.40;;;18.70;63.90;;;;;;5055860;28;20486;-85
2021/06/24 04:39:34;;;;;;;5.57;4.82;;;18.70;63.90;;;;;;5054613;28;20049;-86
2021/06/24 04:42:19;;;;;;;5.03;4.63;;;18.80;63.90;;;;;;5059646;28;20045;-85
2021/06/24 04:45:08;;;;;;;5.18;4.60;;;18.80;63.90;;;;;;5052780;28;20123;-85
2021/06/24 04:47:48;;;;;;;4.78;4.38;;;18.80;64.00;;;;;;5061706;28;20494;-85
2021/06/24 04:50:16;;;;;;;4.05;3.75;;;18.70;64.00;;;;;;5051699;28;20037;-84
2021/06/24 04:52:52;;;;;;;5.07;4.68;;;18.70;64.00;;;;;;5056005;28;20378;-84
2021/06/24 04:55:38;;;;;;;4.80;4.40;;;18.70;64.00;;;;;;5050349;28;20053;-85
2021/06/24 04:58:22;;;;;;;5.03;4.60;;;18.70;64.10;;;;;;5065126;28;20053;-84
2021/06/24 05:01:11;;;;;;;4.85;4.45;;;18.70;64.00;;;;;;5060446;28;20056;-85
2021/06/24 05:04:09;;;;;;;4.90;4.50;;;18.80;64.10;;;;;;5053546;28;20049;-85
2021/06/24 05:06:38;;;;;;;5.45;5.00;;;18.70;64.10;;;;;;5062685;28;20364;-85
2021/06/24 05:09:06;;;;;;;5.40;5.00;;;18.70;64.10;;;;;;5054976;28;20048;-85
2021/06/24 05:11:35;;;;;;;5.82;5.32;;;18.70;64.10;;;;;;5063474;28;20383;-85
2021/06/24 05:14:03;;;;;;;5.53;5.03;;;18.70;64.10;;;;;;5036274;28;20056;-85
2021/06/24 05:16:32;;;;;;;5.50;4.95;;;18.70;64.10;;;;;;5052426;28;20589;-85
2021/06/24 05:19:02;;;;;;;6.10;5.30;;;18.70;64.20;;;;;;5046977;28;20045;-85
2021/06/24 05:21:30;;;;;;;5.75;5.25;;;18.70;64.20;;;;;;5066930;28;20056;-85
2021/06/24 05:23:59;;;;;;;5.50;5.00;;;18.70;64.30;;;;;;5067148;28;20045;-85
2021/06/24 05:26:27;;;;;;;5.20;4.70;;;18.70;64.30;;;;;;5064361;28;20053;-85
2021/06/24 05:28:55;;;;;;;5.50;4.93;;;18.70;64.30;;;;;;5057006;28;20052;-85
2021/06/24 05:31:23;;;;;;;5.20;4.80;;;18.70;64.30;;;;;;5057021;28;20049;-85
2021/06/24 05:33:53;;;;;;;6.47;4.60;;;18.70;64.30;;;;;;5067927;28;20456;-85
2021/06/24 05:36:31;;;;;;;5.40;4.90;;;18.70;64.30;;;;;;5065059;28;20049;-84
2021/06/24 05:39:04;;;;;;;4.85;4.40;;;18.70;64.30;;;;;;5044933;28;20060;-84
2021/06/24 05:41:33;;;;;;;4.88;4.47;;;18.70;64.30;;;;;;5052943;28;20379;-85
2021/06/24 05:44:02;;;;;;;5.40;4.80;;;18.70;64.30;;;;;;5064254;28;20371;-85
2021/06/24 05:46:30;;;;;;;5.30;4.80;;;18.70;64.30;;;;;;5056283;28;20067;-85
2021/06/24 05:48:58;;;;;;;5.18;4.68;;;18.70;64.30;;;;;;5060699;28;20048;-85
2021/06/24 05:51:27;;;;;;;4.95;4.45;;;18.80;64.40;;;;;;5068479;28;20060;-85
2021/06/24 05:53:55;;;;;;;4.75;4.35;;;18.70;64.40;;;;;;5055728;28;20056;-85
2021/06/24 05:56:25;;;;;;;5.15;4.70;;;18.80;64.40;;;;;;5071905;28;20057;-84
2021/06/24 05:58:53;;;;;;;5.03;4.40;;;18.80;64.40;;;;;;5055547;28;20049;-85
2021/06/24 06:01:21;;;;;;;4.90;4.50;;;18.80;64.40;;;;;;5052289;28;20063;-85
2021/06/24 06:03:50;;;;;;;4.45;4.05;;;18.80;64.40;;;;;;5066138;28;20049;-85
2021/06/24 06:06:19;;;;;;;4.95;4.45;;;18.80;64.40;;;;;;5063982;28;20055;-85
2021/06/24 06:08:47;;;;;;;5.05;4.60;;;18.80;64.40;;;;;;5046797;28;20067;-84
2021/06/24 06:11:34;;;;;;;4.80;4.40;;;18.80;64.40;;;;;;5064164;28;20040;-85
2021/06/24 06:14:10;;;;;;;5.38;4.35;;;18.80;64.50;;;;;;5037087;28;20048;-84
2021/06/24 06:16:53;;;;;;;5.18;4.32;;;18.80;64.40;;;;;;5052029;28;20045;-85
2021/06/24 06:19:22;;;;;;;5.05;4.55;;;18.80;64.40;;;;;;5046770;28;20467;-85
2021/06/24 06:21:50;;;;;;;4.70;4.30;;;18.80;64.40;;;;;;5051387;28;20052;-84
2021/06/24 06:24:20;;;;;;;4.78;4.38;;;18.80;64.40;;;;;;5048563;28;20075;-84
2021/06/24 06:26:48;;;;;;;5.40;4.90;;;18.80;64.30;;;;;;5066663;28;20055;-85
2021/06/24 06:29:44;;;;;;;5.25;4.82;;;18.80;64.30;;;;;;5055560;28;20041;-84
2021/06/24 06:32:13;;;;;;;5.93;5.30;;;18.80;64.50;;;;;;5058657;28;20060;-85
2021/06/24 06:34:42;;;;;;;4.90;4.40;;;18.80;64.40;;;;;;5062232;28;20037;-85
2021/06/24 06:37:10;;;;;;;5.82;5.32;;;18.90;64.50;;;;;;5062725;28;20057;-85
2021/06/24 06:39:44;;;;;;;6.32;5.38;;;18.80;64.40;;;;;;5061792;28;20410;-85
2021/06/24 06:42:14;;;;;;;5.30;4.78;;;18.90;64.50;;;;;;5063870;28;20049;-85
2021/06/24 06:44:46;;;;;;;5.63;4.95;;;18.90;64.50;;;;;;5048904;28;20052;-85
2021/06/24 06:47:15;;;;;;;6.00;4.85;;;18.90;64.40;;;;;;5056265;28;20072;-84
2021/06/24 06:49:45;;;;;;;5.80;5.25;;;19.00;64.40;;;;;;5056123;28;20040;-85
2021/06/24 06:52:14;;;;;;;5.47;4.97;;;19.00;64.40;;;;;;5036807;28;20041;-85
2021/06/24 06:54:46;;;;;;;5.43;4.93;;;19.00;64.40;;;;;;5046497;28;20455;-85
2021/06/24 06:57:15;;;;;;;5.97;5.47;;;19.00;64.40;;;;;;5052375;28;20367;-85
2021/06/24 06:59:43;;;;;;;8.25;5.22;;;19.00;64.50;;;;;;5070223;28;20071;-85
2021/06/24 07:02:16;;;;;;;6.35;5.47;;;19.00;64.50;;;;;;5068743;28;20071;-85
2021/06/24 07:04:45;;;;;;;5.70;5.20;;;19.00;64.40;;;;;;5067635;28;20045;-84
2021/06/24 07:07:19;;;;;;;7.57;5.50;;;19.00;64.50;;;;;;5049807;28;20052;-83
2021/06/24 07:09:53;;;;;;;6.55;5.95;;;19.00;64.50;;;;;;5050899;28;20247;-83
2021/06/24 07:12:35;;;;;;;6.95;6.22;;;19.10;64.60;;;;;;5089049;28;20071;-85
2021/06/24 07:15:04;;;;;;;7.63;6.82;;;19.10;64.70;;;;;;5071213;28;20040;-85
2021/06/24 07:17:35;;;;;;;7.63;5.72;;;19.10;64.80;;;;;;5082876;28;20067;-84
2021/06/24 07:20:13;;;;;;;7.50;6.80;;;19.20;64.90;;;;;;5082806;28;20051;-84
2021/06/24 07:22:41;;;;;;;6.63;5.93;;;19.20;64.90;;;;;;5056739;28;20386;-86
2021/06/24 07:25:13;;;;;;;6.22;5.63;;;19.20;65.00;;;;;;5054387;28;20056;-86
2021/06/24 07:27:45;;;;;;;6.20;5.65;;;19.20;65.00;;;;;;5072846;28;20070;-86
2021/06/24 07:30:14;;;;;;;6.57;5.88;;;19.20;65.10;;;;;;5031386;28;20044;-85
2021/06/24 07:32:43;;;;;;;6.85;6.05;;;19.20;65.10;;;;;;5081630;28;20044;-86
2021/06/24 07:35:12;;;;;;;6.32;5.72;;;19.30;65.10;;;;;;5065713;28;20382;-85
2021/06/24 07:37:43;;;;;;;5.63;5.18;;;19.30;65.20;;;;;;5048459;28;20051;-84
2021/06/24 07:40:14;;;;;;;6.03;5.43;;;19.30;65.20;;;;;;5070835;28;20678;-85
2021/06/24 07:42:54;;;;;;;5.90;5.40;;;19.30;65.30;;;;;;5064501;28;20102;-79
2021/06/24 07:45:39;;;;;;;5.45;4.82;;;19.30;65.30;;;;;;5058643;28;20045;-83
2021/06/24 07:48:07;;;;;;;5.63;4.97;;;19.30;65.30;;;;;;5066764;28;20387;-86
2021/06/24 07:50:43;;;;;;;4.93;4.53;;;19.30;65.40;;;;;;5068257;28;20052;-80
2021/06/24 07:53:16;;;;;;;5.00;4.60;;;19.30;65.40;;;;;;5080122;28;20676;-81
2021/06/24 07:55:51;;;;;;;5.53;5.03;;;19.30;65.50;;;;;;5089511;28;20142;-84
2021/06/24 07:58:52;;;;;;;5.00;4.53;;;19.30;65.60;;;;;;5062838;28;20048;-86
2021/06/24 08:01:20;;;;;;;4.78;4.38;;;19.30;65.50;;;;;;5072812;28;20078;-81
2021/06/24 08:03:54;;;;;;;5.47;4.50;;;19.30;65.50;;;;;;5084091;28;20056;-86
2021/06/24 08:06:22;;;;;;;4.60;4.20;;;19.30;65.60;;;;;;5062453;28;20048;-86
2021/06/24 08:09:01;;;;;;;4.72;4.32;;;19.30;65.70;;;;;;5061732;28;20378;-86
2021/06/24 08:11:29;;;;;;;4.85;4.45;;;19.30;65.60;;;;;;5046166;28;20052;-86
2021/06/24 08:13:58;;;;;;;4.65;4.10;;;19.30;65.60;;;;;;5063951;28;20045;-85
2021/06/24 08:16:32;;;;;;;4.68;4.03;;;19.30;65.50;;;;;;5059121;28;20055;-83
2021/06/24 08:19:01;;;;;;;4.38;4.00;;;19.30;65.50;;;;;;5067747;28;20049;-83
2021/06/24 08:21:30;;;;;;;6.63;3.75;;;19.30;65.50;;;;;;5033313;28;20384;-83
2021/06/24 08:23:58;;;;;;;4.65;3.55;;;19.30;65.50;;;;;;5039675;28;20066;-83
2021/06/24 08:26:29;;;;;;;9.10;4.25;;;19.30;65.60;;;;;;5065106;28;20393;-84
2021/06/24 08:28:58;;;;;;;4.40;3.97;;;19.30;65.60;;;;;;5052569;28;20047;-84
2021/06/24 08:31:27;;;;;;;4.68;3.88;;;19.30;65.70;;;;;;5046239;28;20048;-84
2021/06/24 08:34:02;;;;;;;3.65;3.35;;;19.30;65.70;;;;;;5037241;28;20045;-84
2021/06/24 08:36:32;;;;;;;5.63;3.88;;;19.30;65.80;;;;;;5059185;28;20048;-85
2021/06/24 08:39:00;;;;;;;3.88;3.58;;;19.30;65.80;;;;;;5062581;28;20089;-84
2021/06/24 08:41:29;;;;;;;4.22;3.55;;;19.30;65.80;;;;;;5061219;28;20059;-86
2021/06/24 08:43:59;;;;;;;4.65;3.28;;;19.30;65.90;;;;;;5057253;28;20048;-87
2021/06/24 08:46:28;;;;;;;3.80;3.50;;;19.30;66.00;;;;;;5077155;28;20390;-92
2021/06/24 08:49:01;;;;;;;3.88;3.58;;;19.40;66.00;;;;;;5056505;28;20044;-86
2021/06/24 08:51:30;;;;;;;3.72;3.30;;;19.40;66.10;;;;;;5066505;28;20060;-87
2021/06/24 08:54:00;;;;;;;3.70;3.40;;;19.30;66.10;;;;;;5055873;28;20045;-90
2021/06/24 08:56:29;;;;;;;3.50;3.20;;;19.30;66.20;;;;;;5052376;28;20048;-89
2021/06/24 08:58:57;;;;;;;5.22;3.28;;;19.30;66.40;;;;;;5059915;28;20055;-89
2021/06/24 09:01:48;;;;;;;3.35;3.05;;;19.30;66.50;;;;;;5057385;28;20049;-91
2021/06/24 09:04:22;;;;;;;5.32;3.38;;;19.30;66.80;;;;;;5058955;28;20082;-90
2021/06/24 09:06:50;;;;;;;3.70;3.20;;;19.30;66.80;;;;;;5058224;28;20446;-89
2021/06/24 09:09:32;;;;;;;3.50;3.20;;;19.40;66.90;;;;;;5049742;28;20049;-90
2021/06/24 09:12:02;;;;;;;4.63;3.38;;;19.40;66.90;;;;;;5057756;28;20060;-86
2021/06/24 09:14:48;;;;;;;5.40;4.65;;;19.40;66.80;;;;;;5062792;28;20462;-86
2021/06/24 09:17:33;;;;;;;6.07;4.80;;;19.40;66.90;;;;;;5058605;28;20421;-86
2021/06/24 09:20:06;;;;;;;6.30;4.70;;;19.30;67.00;;;;;;5045565;28;20049;-86
2021/06/24 09:22:35;;;;;;;8.20;5.70;;;19.30;66.90;;;;;;5054850;28;20051;-87
2021/06/24 09:25:21;;;;;;;7.32;6.10;;;19.30;66.90;;;;;;5046402;28;20060;-85
2021/06/24 09:27:59;;;;;;;7.78;6.43;;;19.40;66.90;;;;;;5069670;28;20049;-86
2021/06/24 09:30:29;;;;;;;7.68;6.88;;;19.30;66.90;;;;;;5071462;28;20041;-86
2021/06/24 09:33:16;;;;;;;8.68;7.30;;;19.40;66.90;;;;;;5030852;28;20033;-86
2021/06/24 09:35:57;;;;;;;9.15;8.10;;;19.40;67.00;;;;;;5060647;28;20044;-86
2021/06/24 09:38:25;;;;;;;11.25;8.05;;;19.40;67.10;;;;;;5055272;28;20049;-86
2021/06/24 09:40:57;;;;;;;10.27;8.43;;;19.40;67.10;;;;;;5036613;28;20051;-86
2021/06/24 09:43:39;;;;;;;10.77;9.38;;;19.40;67.20;;;;;;5051878;28;20051;-85
2021/06/24 09:46:13;;;;;;;12.98;9.90;;;19.50;67.30;;;;;;5031058;28;20048;-86
2021/06/24 09:48:46;;;;;;;11.70;10.50;;;19.50;67.30;;;;;;5070365;28;20064;-86
2021/06/24 09:51:17;;;;;;;11.77;9.05;;;19.50;67.40;;;;;;5039185;28;20056;-87
2021/06/24 09:54:03;;;;;;;10.68;8.85;;;19.60;67.40;;;;;;5039089;28;20044;-86
2021/06/24 09:56:44;;;;;;;12.85;9.32;;;19.60;67.50;;;;;;5047465;28;20044;-86
2021/06/24 09:59:14;;;;;;;13.50;8.63;;;19.60;67.40;;;;;;5045623;28;20056;-87
2021/06/24 10:01:50;;;;;;;11.98;9.15;;;19.70;67.40;;;;;;5055895;28;20406;-87
2021/06/24 10:04:24;;;;;;;13.05;9.93;;;19.70;67.40;;;;;;5057962;28;20045;-86
2021/06/24 10:06:55;;;;;;;12.13;10.00;;;19.70;67.50;;;;;;5080390;28;20459;-86
2021/06/24 10:09:25;;;;;;;13.38;10.60;;;19.80;67.50;;;;;;5074923;28;20040;-82
2021/06/24 10:11:55;;;;;;;13.30;10.88;;;19.80;67.50;;;;;;5058807;28;20059;-86
2021/06/24 10:14:30;;;;;;;14.93;11.48;;;19.80;67.60;;;;;;5056304;28;20044;-88
2021/06/24 10:17:03;;;;;;;17.45;12.40;;;19.80;67.70;;;;;;5057048;28;20045;-85
2021/06/24 10:19:38;;;;;;;18.20;13.25;;;19.90;67.70;;;;;;5063881;28;20060;-85
2021/06/24 10:22:22;;;;;;;16.45;12.77;;;19.90;67.70;;;;;;5053125;28;20477;-86
2021/06/24 10:25:02;;;;;;;16.08;12.30;;;19.90;67.80;;;;;;5067763;28;20474;-86
2021/06/24 10:27:33;;;;;;;17.55;12.90;;;20.00;67.80;;;;;;5047584;28;20482;-87
2021/06/24 10:30:17;;;;;;;20.02;13.38;;;20.00;67.70;;;;;;5057199;28;20041;-85
2021/06/24 10:32:57;;;;;;;17.33;12.23;;;20.00;67.80;;;;;;5058382;28;20375;-86
2021/06/24 10:35:37;;;;;;;17.35;13.20;;;20.00;67.70;;;;;;5067079;28;20044;-86
2021/06/24 10:38:07;;;;;;;16.55;12.75;;;20.10;67.70;;;;;;5059850;28;20052;-86
2021/06/24 10:40:37;;;;;;;15.35;12.23;;;20.10;67.80;;;;;;5070051;28;20047;-86
2021/06/24 10:43:13;;;;;;;14.05;12.35;;;20.10;67.90;;;;;;5069306;28;20044;-86
2021/06/24 10:45:43;;;;;;;17.58;12.63;;;20.20;67.90;;;;;;5065839;28;20409;-85
2021/06/24 10:48:32;;;;;;;16.38;12.85;;;20.10;68.00;;;;;;5052840;28;20386;-86
2021/06/24 10:51:09;;;;;;;15.98;12.95;;;20.10;68.10;;;;;;5041009;28;20040;-87
2021/06/24 10:53:47;;;;;;;17.30;13.65;;;20.10;68.00;;;;;;5055398;28;20045;-86
2021/06/24 10:56:48;;;;;;;19.35;14.63;;;20.20;68.10;;;;;;5058759;28;20378;-85
2021/06/24 10:59:27;;;;;;;17.88;15.30;;;20.20;68.10;;;;;;5072742;28;20067;-86
2021/06/24 11:02:06;;;;;;;18.73;15.80;;;20.20;68.10;;;;;;5068171;28;20045;-85
2021/06/24 11:04:37;;;;;;;20.88;16.65;;;20.20;68.10;;;;;;5052170;28;20044;-85
2021/06/24 11:07:15;;;;;;;20.08;15.90;;;20.30;68.10;;;;;;5054128;28;20076;-84
2021/06/24 11:10:12;;;;;;;16.85;14.18;;;20.30;68.20;;;;;;5068464;28;20045;-85
2021/06/24 11:13:04;;;;;;;14.43;12.50;;;20.30;67.90;;;;;;5060891;28;20048;-85
2021/06/24 11:15:54;;;;;;;15.13;13.07;;;20.30;67.60;;;;;;5059591;28;20049;-85
2021/06/24 11:18:32;;;;;;;16.70;14.20;;;20.40;67.30;;;;;;5052203;28;20371;-85
2021/06/24 11:21:05;;;;;;;21.05;16.58;;;20.40;67.00;;;;;;5048961;28;20502;-85
2021/06/24 11:23:37;;;;;;;22.17;16.70;;;20.50;67.00;;;;;;5072506;28;20044;-84
2021/06/24 11:26:09;;;;;;;16.20;14.35;;;20.50;67.00;;;;;;5040503;28;20053;-85
2021/06/24 11:28:44;;;;;;;15.50;13.88;;;20.50;66.90;;;;;;5072532;28;20049;-85
2021/06/24 11:31:14;;;;;;;18.38;15.63;;;20.50;66.80;;;;;;5056896;28;20053;-86
2021/06/24 11:36:55;;;;;;;18.95;15.23;;;20.50;66.70;;;;;;5071815;28;20036;-87
2021/06/24 11:39:32;;;;;;;17.88;14.65;;;20.50;66.60;;;;;;5064375;28;20064;-87
2021/06/24 11:42:04;;;;;;;16.00;14.07;;;20.60;66.60;;;;;;5044854;28;20053;-88
2021/06/24 11:44:36;;;;;;;20.02;16.90;;;20.60;66.50;;;;;;5057002;28;20395;-88
2021/06/24 11:47:29;;;;;;;22.15;17.90;;;20.60;66.40;;;;;;5069710;28;20048;-86
2021/06/24 12:04:26;;;;;;;21.67;18.27;;;20.60;66.80;;;;;;5065978;28;20036;-86
2021/06/24 12:07:08;;;;;;;22.88;18.15;;;20.60;66.80;;;;;;5055869;28;20044;-86
2021/06/24 12:09:46;;;;;;;22.05;18.48;;;20.60;66.70;;;;;;5060102;28;20052;-87
2021/06/24 12:12:17;;;;;;;22.05;18.63;;;20.60;66.60;;;;;;5049551;28;20049;-87
2021/06/24 12:14:48;;;;;;;22.00;18.45;;;20.60;66.60;;;;;;5050989;28;20037;-88
2021/06/24 12:17:25;;;;;;;21.23;16.75;;;20.60;66.60;;;;;;5033609;28;20045;-87
2021/06/24 12:20:03;;;;;;;20.88;17.65;;;20.70;66.30;;;;;;5057230;28;20383;-86
2021/06/24 12:22:34;;;;;;;23.90;18.48;;;20.70;66.30;;;;;;5055952;28;20047;-87
2021/06/24 12:25:14;;;;;;;18.88;16.95;;;20.60;66.30;;;;;;5036570;28;20053;-86
2021/06/24 12:28:04;;;;;;;20.42;16.27;;;20.70;66.30;;;;;;5053645;28;20044;-87
2021/06/24 12:30:44;;;;;;;19.67;16.60;;;20.70;66.20;;;;;;5030960;28;20044;-89
2021/06/24 12:33:17;;;;;;;18.90;16.63;;;20.70;66.10;;;;;;5036079;28;20060;-89
2021/06/24 12:36:06;;;;;;;17.80;16.00;;;20.70;66.10;;;;;;5033342;28;20055;-87
2021/06/24 12:38:53;;;;;;;19.52;16.25;;;20.70;66.10;;;;;;5057146;28;20041;-89
2021/06/24 12:41:28;;;;;;;17.33;15.52;;;20.70;66.10;;;;;;5026264;28;20048;-89
2021/06/24 12:44:06;;;;;;;19.42;15.35;;;20.70;66.10;;;;;;5056492;28;20045;-86
2021/06/24 12:46:37;;;;;;;19.48;14.70;;;20.70;66.20;;;;;;5055019;28;20041;-86
2021/06/24 12:49:21;;;;;;;19.73;14.75;;;20.70;66.20;;;;;;5066899;28;20045;-88
2021/06/24 12:51:52;;;;;;;18.10;13.80;;;20.70;66.10;;;;;;5046314;28;20456;-83
2021/06/24 12:54:24;;;;;;;24.85;13.30;;;20.80;65.90;;;;;;5065987;28;20056;-84
2021/06/24 12:57:06;;;;;;;16.80;12.98;;;20.80;65.60;;;;;;5057244;28;20351;-86
2021/06/24 12:59:34;;;;;;;13.68;12.27;;;20.80;65.40;;;;;;5036129;28;20056;-88
2021/06/24 13:02:05;;;;;;;13.43;12.02;;;20.80;65.40;;;;;;5057647;28;20057;-86
2021/06/24 13:04:39;;;;;;;16.00;12.45;;;20.80;65.30;;;;;;5048677;28;20380;-84
2021/06/24 13:07:07;;;;;;;13.45;10.82;;;20.80;65.30;;;;;;5061641;28;20482;-86
2021/06/24 13:09:46;;;;;;;13.38;11.07;;;20.80;65.30;;;;;;5068534;28;20049;-85
2021/06/24 13:12:16;;;;;;;11.73;10.52;;;20.80;65.30;;;;;;5047103;28;20060;-84
2021/06/24 13:14:47;;;;;;;11.73;10.52;;;20.90;65.30;;;;;;5033539;28;20045;-83
2021/06/24 13:17:24;;;;;;;10.85;9.68;;;20.80;65.40;;;;;;5041319;28;20071;-84
2021/06/24 13:19:56;;;;;;;10.88;9.75;;;20.90;65.50;;;;;;5067459;28;20052;-86
2021/06/24 13:22:26;;;;;;;10.75;9.65;;;20.90;65.50;;;;;;5051320;28;20063;-87
2021/06/24 13:25:21;;;;;;;11.35;9.95;;;20.90;65.50;;;;;;5066607;28;20048;-85
2021/06/24 13:27:51;;;;;;;10.47;9.37;;;20.90;65.40;;;;;;5033982;28;20056;-85
2021/06/24 13:30:20;;;;;;;10.82;8.60;;;20.90;65.40;;;;;;5061631;28;20072;-85
2021/06/24 13:32:56;;;;;;;10.50;9.23;;;20.90;65.30;;;;;;5073601;28;20044;-86